Time;durP1;ratioP1;P1;durP2;ratioP2;P2;SDS_P1;SDS_P2;PMS_P1;PMS_P2;Temp;Humidity;BMP_temperature;BMP_pressure;BME280_temperature;BME280_humidity;BME280_pressure;Samples;Min_cycle;Max_cycle;Signal;HPM_P1;HPM_P2
2023/10/20 00:00:42;;;;;;;14.15;2.90;;;;;;;;;;5080326;28;20016;-41
2023/10/20 00:03:09;;;;;;;4.07;2.17;;;;;;;;;;5085733;28;20020;-39
2023/10/20 00:05:35;;;;;;;5.18;2.20;;;;;;;;;;5086634;28;20036;-51
2023/10/20 00:08:02;;;;;;;5.80;2.15;;;;;;;;;;5085564;28;20020;-43
2023/10/20 00:10:37;;;;;;;5.97;2.00;;;;;;;;;;5085436;28;20325;-43
2023/10/20 00:13:04;;;;;;;7.13;2.20;;;;;;;;;;5086651;28;20080;-43
2023/10/20 00:15:31;;;;;;;7.22;2.40;;;;;;;;;;5084739;28;20052;-40
2023/10/20 00:17:57;;;;;;;9.15;2.15;;;;;;;;;;5084151;28;20016;-41
2023/10/20 00:20:29;;;;;;;8.45;2.40;;;;;;;;;;5085478;28;20020;-44
2023/10/20 00:22:56;;;;;;;6.53;2.50;;;;;;;;;;5084841;28;20219;-45
2023/10/20 00:25:23;;;;;;;7.13;2.67;;;;;;;;;;5085183;28;20027;-49
2023/10/20 00:27:52;;;;;;;6.90;2.45;;;;;;;;;;5084854;28;20024;-39
2023/10/20 00:30:18;;;;;;;7.05;2.67;;;;;;;;;;5085049;28;20060;-40
2023/10/20 00:32:45;;;;;;;6.82;2.20;;;;;;;;;;5085486;28;20023;-47
2023/10/20 00:35:15;;;;;;;6.38;2.17;;;;;;;;;;5086066;28;20055;-37
2023/10/20 00:37:43;;;;;;;5.55;2.35;;;;;;;;;;5086214;28;20016;-44
2023/10/20 00:40:10;;;;;;;6.38;2.60;;;;;;;;;;5086309;28;20048;-37
2023/10/20 00:42:38;;;;;;;7.72;2.30;;;;;;;;;;5085829;28;20247;-42
2023/10/20 00:45:05;;;;;;;7.97;2.58;;;;;;;;;;5086094;28;20040;-42
2023/10/20 00:47:32;;;;;;;3.75;2.38;;;;;;;;;;5085794;28;20016;-41
2023/10/20 00:50:02;;;;;;;5.05;2.90;;;;;;;;;;5085828;28;20020;-37
2023/10/20 00:52:30;;;;;;;4.60;3.00;;;;;;;;;;5085544;28;20134;-38
2023/10/20 00:54:58;;;;;;;5.28;2.83;;;;;;;;;;5085436;28;20040;-41
2023/10/20 00:57:28;;;;;;;4.93;3.20;;;;;;;;;;5085586;28;20023;-38
2023/10/20 00:59:55;;;;;;;5.18;3.08;;;;;;;;;;5085716;28;20088;-38
2023/10/20 01:02:21;;;;;;;6.90;3.00;;;;;;;;;;5085533;28;20024;-37
2023/10/20 01:04:48;;;;;;;5.55;2.88;;;;;;;;;;5085464;28;20035;-37
2023/10/20 01:07:15;;;;;;;4.82;2.90;;;;;;;;;;5085319;28;20104;-39
2023/10/20 01:09:43;;;;;;;4.43;3.05;;;;;;;;;;5085320;28;20100;-42
2023/10/20 01:12:10;;;;;;;7.53;3.03;;;;;;;;;;5084769;28;20016;-41
2023/10/20 01:14:37;;;;;;;5.38;3.35;;;;;;;;;;5085500;28;20032;-39
2023/10/20 01:17:04;;;;;;;8.80;3.60;;;;;;;;;;5085142;28;20017;-46
2023/10/20 01:19:32;;;;;;;9.18;3.80;;;;;;;;;;5085138;28;20083;-42
2023/10/20 01:21:59;;;;;;;11.27;5.07;;;;;;;;;;5085101;28;20220;-37
2023/10/20 01:24:26;;;;;;;12.05;5.38;;;;;;;;;;5085133;28;20032;-41
2023/10/20 01:26:57;;;;;;;14.43;5.55;;;;;;;;;;5084926;28;20022;-36
2023/10/20 01:29:24;;;;;;;12.10;5.93;;;;;;;;;;5085113;28;20036;-42
2023/10/20 01:31:50;;;;;;;17.63;6.57;;;;;;;;;;5085049;28;20359;-36
2023/10/20 01:34:18;;;;;;;27.25;8.35;;;;;;;;;;5084694;28;20056;-39
2023/10/20 01:36:45;;;;;;;37.65;8.48;;;;;;;;;;5084913;28;20050;-38
2023/10/20 01:39:11;;;;;;;42.17;8.57;;;;;;;;;;5084661;28;20025;-39
2023/10/20 02:01:45;;;;;;;6.05;2.65;;;;;;;;;;5142389;27;20188;-39
2023/10/20 02:04:12;;;;;;;6.43;2.65;;;;;;;;;;5142464;28;20043;-42
2023/10/20 02:06:38;;;;;;;8.15;3.10;;;;;;;;;;5142212;28;20070;-44
2023/10/20 02:09:06;;;;;;;5.60;3.10;;;;;;;;;;5142318;28;20027;-44
2023/10/20 02:11:32;;;;;;;6.03;3.60;;;;;;;;;;5142555;28;20019;-42
2023/10/20 02:13:59;;;;;;;7.35;4.07;;;;;;;;;;5142296;28;20413;-45
2023/10/20 02:16:26;;;;;;;8.05;4.63;;;;;;;;;;5120322;28;20072;-38
2023/10/20 02:18:52;;;;;;;5.75;4.07;;;;;;;;;;5132698;28;20035;-40
2023/10/20 02:21:19;;;;;;;8.52;4.45;;;;;;;;;;5141879;28;20072;-44
2023/10/20 02:23:47;;;;;;;7.43;4.25;;;;;;;;;;5134387;27;20051;-39
2023/10/20 02:26:14;;;;;;;8.05;4.07;;;;;;;;;;5125885;28;20032;-40
2023/10/20 02:28:41;;;;;;;5.47;3.45;;;;;;;;;;5121336;28;20016;-40
2023/10/20 02:31:17;;;;;;;4.60;3.40;;;;;;;;;;5129767;27;20024;-39
2023/10/20 02:33:44;;;;;;;4.78;3.33;;;;;;;;;;5133478;28;20031;-45
2023/10/20 02:36:16;;;;;;;6.35;3.30;;;;;;;;;;5141554;28;20023;-48
2023/10/20 02:38:43;;;;;;;3.55;3.20;;;;;;;;;;5140203;27;20034;-44
2023/10/20 02:41:09;;;;;;;5.25;3.28;;;;;;;;;;5133740;27;20023;-39
2023/10/20 02:43:36;;;;;;;8.57;4.15;;;;;;;;;;5135100;28;20098;-41
2023/10/20 02:46:03;;;;;;;6.28;4.45;;;;;;;;;;5140853;27;20034;-39
2023/10/20 02:48:30;;;;;;;7.47;4.25;;;;;;;;;;5141612;28;20024;-42
2023/10/20 02:50:57;;;;;;;7.80;4.72;;;;;;;;;;5141960;28;20046;-38
2023/10/20 02:53:24;;;;;;;7.70;4.10;;;;;;;;;;5141568;28;20027;-40
2023/10/20 02:55:51;;;;;;;7.80;4.28;;;;;;;;;;5141633;27;20249;-45
2023/10/20 02:58:17;;;;;;;5.55;3.80;;;;;;;;;;5141496;28;20042;-43
2023/10/20 03:00:44;;;;;;;6.32;3.92;;;;;;;;;;5130633;28;20051;-43
2023/10/20 03:03:12;;;;;;;5.30;3.53;;;;;;;;;;5126151;28;20323;-44
2023/10/20 03:05:40;;;;;;;7.18;3.75;;;;;;;;;;5126375;28;20027;-50
2023/10/20 03:08:08;;;;;;;4.60;3.50;;;;;;;;;;5127027;28;20028;-44
2023/10/20 03:10:35;;;;;;;6.18;3.80;;;;;;;;;;5126716;28;20011;-41
2023/10/20 03:13:04;;;;;;;6.30;3.40;;;;;;;;;;5125788;28;20082;-44
2023/10/20 03:15:31;;;;;;;6.13;3.75;;;;;;;;;;5126627;28;20353;-45
2023/10/20 03:18:02;;;;;;;5.88;3.28;;;;;;;;;;5126173;28;20060;-42
2023/10/20 03:20:30;;;;;;;5.20;3.35;;;;;;;;;;5127050;28;20310;-48
2023/10/20 03:22:56;;;;;;;4.45;3.22;;;;;;;;;;5127022;28;20028;-39
2023/10/20 03:25:23;;;;;;;4.85;3.00;;;;;;;;;;5127368;28;20192;-43
2023/10/20 03:27:50;;;;;;;6.25;3.22;;;;;;;;;;5126691;28;20022;-43
2023/10/20 03:30:17;;;;;;;5.03;3.60;;;;;;;;;;5127265;28;20035;-42
2023/10/20 03:32:44;;;;;;;3.85;3.00;;;;;;;;;;5126883;28;20026;-46
2023/10/20 03:35:12;;;;;;;4.45;3.45;;;;;;;;;;5127024;28;20450;-43
2023/10/20 03:37:38;;;;;;;5.13;3.22;;;;;;;;;;5126756;28;20090;-49
2023/10/20 03:40:13;;;;;;;5.05;3.20;;;;;;;;;;5127053;28;20034;-43
2023/10/20 03:42:48;;;;;;;3.38;2.97;;;;;;;;;;5126603;28;20255;-40
2023/10/20 03:45:15;;;;;;;8.25;3.55;;;;;;;;;;5127025;28;20035;-43
2023/10/20 03:47:43;;;;;;;8.60;3.45;;;;;;;;;;5126375;28;20015;-45
2023/10/20 03:50:15;;;;;;;7.47;3.40;;;;;;;;;;5126690;28;20070;-44
2023/10/20 03:52:45;;;;;;;6.45;3.20;;;;;;;;;;5126432;28;20087;-43
2023/10/20 03:55:15;;;;;;;6.30;3.65;;;;;;;;;;5126414;28;20039;-39
2023/10/20 03:57:47;;;;;;;4.10;3.00;;;;;;;;;;5126355;28;20200;-42
2023/10/20 04:00:35;;;;;;;7.18;3.35;;;;;;;;;;5126343;28;20040;-43
2023/10/20 04:03:03;;;;;;;5.53;3.00;;;;;;;;;;5126245;28;20102;-45
2023/10/20 04:05:30;;;;;;;5.88;3.20;;;;;;;;;;5126629;28;20022;-46
2023/10/20 04:07:56;;;;;;;7.65;3.35;;;;;;;;;;5125851;28;20023;-48
2023/10/20 04:10:23;;;;;;;8.60;3.28;;;;;;;;;;5126464;28;20027;-45
2023/10/20 04:12:52;;;;;;;7.80;3.15;;;;;;;;;;5125137;28;20015;-41
2023/10/20 04:15:25;;;;;;;4.38;3.35;;;;;;;;;;5126187;28;20099;-42
2023/10/20 04:17:52;;;;;;;5.88;3.20;;;;;;;;;;5125848;28;20080;-46
2023/10/20 04:20:23;;;;;;;6.05;3.22;;;;;;;;;;5126211;28;20061;-41
2023/10/20 04:22:50;;;;;;;8.13;3.60;;;;;;;;;;5125815;28;20023;-43
2023/10/20 04:25:19;;;;;;;4.80;2.97;;;;;;;;;;5126251;28;20303;-39
2023/10/20 04:27:57;;;;;;;5.50;3.33;;;;;;;;;;5125422;28;20038;-42
2023/10/20 05:00:37;;;;;;;7.07;2.88;;;;;;;;;;5124885;28;20361;-38
2023/10/20 05:05:40;;;;;;;4.93;2.80;;;;;;;;;;5125407;28;20024;-39
2023/10/20 05:10:40;;;;;;;5.07;2.65;;;;;;;;;;5125361;28;20023;-43
2023/10/20 05:13:06;;;;;;;4.32;2.67;;;;;;;;;;5124755;28;20027;-43
2023/10/20 05:15:38;;;;;;;4.22;2.80;;;;;;;;;;5125321;28;20341;-49
2023/10/20 05:18:17;;;;;;;4.95;2.95;;;;;;;;;;5124763;28;20051;-49
2023/10/20 05:20:47;;;;;;;4.45;3.20;;;;;;;;;;5125137;28;20028;-47
2023/10/20 05:23:17;;;;;;;5.85;2.90;;;;;;;;;;5124569;28;20343;-48
2023/10/20 05:25:47;;;;;;;5.75;3.30;;;;;;;;;;5124990;28;20023;-51
2023/10/20 05:28:15;;;;;;;5.30;2.90;;;;;;;;;;5124531;28;20042;-38
2023/10/20 05:30:43;;;;;;;4.25;2.95;;;;;;;;;;5125087;28;20039;-40
2023/10/20 05:33:11;;;;;;;6.45;2.90;;;;;;;;;;5124701;28;20016;-40
2023/10/20 05:35:38;;;;;;;11.07;3.00;;;;;;;;;;5106611;28;20047;-43
2023/10/20 05:38:05;;;;;;;6.05;2.65;;;;;;;;;;5124509;28;20215;-44
2023/10/20 05:40:33;;;;;;;11.40;2.97;;;;;;;;;;5124777;28;20054;-39
2023/10/20 05:43:01;;;;;;;8.77;2.50;;;;;;;;;;5124624;28;20055;-39
2023/10/20 05:45:32;;;;;;;5.22;2.63;;;;;;;;;;5124825;28;20061;-43
2023/10/20 05:48:00;;;;;;;8.75;2.90;;;;;;;;;;5124202;28;20073;-42
2023/10/20 05:50:27;;;;;;;5.43;3.03;;;;;;;;;;5124831;28;20034;-41
2023/10/20 05:52:54;;;;;;;10.35;2.90;;;;;;;;;;5124384;28;20024;-43
2023/10/20 05:55:20;;;;;;;5.68;2.67;;;;;;;;;;5124065;28;20027;-45
2023/10/20 05:57:47;;;;;;;7.63;2.85;;;;;;;;;;5124305;28;20030;-38
2023/10/20 06:00:15;;;;;;;6.65;2.50;;;;;;;;;;5124253;28;20111;-42
2023/10/20 06:02:41;;;;;;;6.35;2.80;;;;;;;;;;5124488;28;20039;-41
2023/10/20 06:05:09;;;;;;;6.50;2.80;;;;;;;;;;5124768;28;20199;-40
2023/10/20 06:07:36;;;;;;;4.53;2.70;;;;;;;;;;5124236;28;20027;-40
2023/10/20 06:10:03;;;;;;;4.15;2.42;;;;;;;;;;5124277;28;20028;-45
2023/10/20 06:12:30;;;;;;;6.32;2.30;;;;;;;;;;5124193;28;20210;-46
2023/10/20 06:14:56;;;;;;;3.20;2.47;;;;;;;;;;5124498;28;20061;-38
2023/10/20 06:17:23;;;;;;;8.18;2.70;;;;;;;;;;5124103;28;20015;-40
2023/10/20 06:19:50;;;;;;;8.93;2.67;;;;;;;;;;5124501;28;20032;-43
2023/10/20 06:22:16;;;;;;;6.90;2.95;;;;;;;;;;5124071;28;20031;-47
2023/10/20 06:24:47;;;;;;;6.25;2.10;;;;;;;;;;5124204;28;20016;-41
2023/10/20 06:27:13;;;;;;;5.65;2.53;;;;;;;;;;5124055;28;20023;-44
2023/10/20 06:29:48;;;;;;;3.35;2.50;;;;;;;;;;5124221;28;20039;-40
2023/10/20 06:34:46;;;;;;;5.32;2.60;;;;;;;;;;5124506;28;20027;-41
2023/10/20 06:37:19;;;;;;;5.13;2.30;;;;;;;;;;5127678;28;20026;-49
2023/10/20 06:39:46;;;;;;;7.22;2.40;;;;;;;;;;5128020;28;20245;-45
2023/10/20 06:42:13;;;;;;;3.35;2.33;;;;;;;;;;5128113;28;20189;-43
2023/10/20 06:44:39;;;;;;;5.85;2.13;;;;;;;;;;5127835;28;20030;-45
2023/10/20 06:47:06;;;;;;;3.95;2.50;;;;;;;;;;5127717;28;20047;-44
2023/10/20 06:49:34;;;;;;;6.45;2.30;;;;;;;;;;5127746;28;20035;-45
2023/10/20 06:52:03;;;;;;;4.43;2.33;;;;;;;;;;5127507;28;20016;-37
2023/10/20 06:54:30;;;;;;;3.78;2.45;;;;;;;;;;5127753;28;20049;-36
2023/10/20 06:56:57;;;;;;;8.90;2.30;;;;;;;;;;5127638;28;20249;-37
2023/10/20 06:59:24;;;;;;;6.20;2.20;;;;;;;;;;5127316;28;20065;-36
2023/10/20 07:01:51;;;;;;;6.50;2.60;;;;;;;;;;5127339;28;20028;-40
2023/10/20 07:04:17;;;;;;;7.72;2.00;;;;;;;;;;5127484;28;20056;-36
2023/10/20 07:06:44;;;;;;;4.30;2.40;;;;;;;;;;5127216;28;20024;-39
2023/10/20 07:09:14;;;;;;;7.30;2.33;;;;;;;;;;5127315;28;20019;-36
2023/10/20 07:11:41;;;;;;;8.30;2.30;;;;;;;;;;5127183;28;20031;-35
2023/10/20 07:14:08;;;;;;;4.55;2.30;;;;;;;;;;5127158;28;20194;-35
2023/10/20 07:16:34;;;;;;;5.45;2.38;;;;;;;;;;5127280;28;20315;-39
2023/10/20 07:19:01;;;;;;;6.40;2.35;;;;;;;;;;5127207;28;20080;-40
2023/10/20 07:21:28;;;;;;;6.65;2.63;;;;;;;;;;5126936;28;20031;-35
2023/10/20 07:23:58;;;;;;;3.53;2.38;;;;;;;;;;5127069;28;20092;-41
2023/10/20 07:26:25;;;;;;;3.70;2.10;;;;;;;;;;5126955;28;20032;-39
2023/10/20 07:28:51;;;;;;;5.75;2.15;;;;;;;;;;5126657;28;20082;-37
2023/10/20 07:31:21;;;;;;;5.82;2.50;;;;;;;;;;5127019;28;20016;-36
2023/10/20 07:33:51;;;;;;;7.75;2.35;;;;;;;;;;5126807;28;20054;-37
2023/10/20 07:36:18;;;;;;;4.18;2.60;;;;;;;;;;5126700;28;20024;-37
2023/10/20 07:38:45;;;;;;;4.25;2.47;;;;;;;;;;5126699;28;20030;-40
2023/10/20 07:41:13;;;;;;;5.00;2.63;;;;;;;;;;5126755;28;20050;-36
2023/10/20 07:43:40;;;;;;;7.22;2.72;;;;;;;;;;5126481;28;20042;-41
2023/10/20 07:46:07;;;;;;;4.20;2.33;;;;;;;;;;5126737;28;20019;-36
2023/10/20 07:48:34;;;;;;;7.20;2.58;;;;;;;;;;5126592;28;20249;-38
2023/10/20 07:51:01;;;;;;;6.45;2.75;;;;;;;;;;5126294;28;20024;-41
2023/10/20 07:53:29;;;;;;;6.63;2.55;;;;;;;;;;5126422;28;20038;-36
2023/10/20 07:55:56;;;;;;;6.45;2.60;;;;;;;;;;5126829;28;20039;-40
2023/10/20 07:58:23;;;;;;;4.75;2.75;;;;;;;;;;5126196;28;20015;-39
2023/10/20 08:00:50;;;;;;;8.00;2.75;;;;;;;;;;5126374;28;20051;-38
2023/10/20 08:03:17;;;;;;;4.35;2.40;;;;;;;;;;5126202;28;20323;-39
2023/10/20 08:05:44;;;;;;;7.68;2.40;;;;;;;;;;5126495;28;20065;-38
2023/10/20 08:08:10;;;;;;;4.05;2.53;;;;;;;;;;5126069;28;20096;-44
2023/10/20 08:10:38;;;;;;;6.95;2.78;;;;;;;;;;5126582;28;20185;-45
2023/10/20 08:13:05;;;;;;;5.03;2.35;;;;;;;;;;5125834;28;20087;-43
2023/10/20 08:15:36;;;;;;;5.43;2.60;;;;;;;;;;5126432;28;20043;-40
2023/10/20 08:18:02;;;;;;;4.85;2.50;;;;;;;;;;5125909;28;20068;-40
2023/10/20 08:20:29;;;;;;;6.43;2.10;;;;;;;;;;5126176;28;20028;-44
2023/10/20 08:22:56;;;;;;;4.15;2.63;;;;;;;;;;5125853;28;20049;-46
2023/10/20 08:25:22;;;;;;;5.93;2.60;;;;;;;;;;5126207;28;20207;-42
2023/10/20 08:27:49;;;;;;;4.32;2.20;;;;;;;;;;5125539;28;20019;-40
2023/10/20 08:30:16;;;;;;;4.45;2.33;;;;;;;;;;5126004;28;20228;-45
2023/10/20 08:32:42;;;;;;;6.63;2.40;;;;;;;;;;5125576;28;20055;-39
2023/10/20 08:35:09;;;;;;;3.50;2.42;;;;;;;;;;5125710;28;20023;-38
2023/10/20 08:37:36;;;;;;;3.83;2.22;;;;;;;;;;5125744;28;20196;-38
2023/10/20 08:40:10;;;;;;;3.88;2.20;;;;;;;;;;5125789;28;20035;-38
2023/10/20 08:42:40;;;;;;;4.45;2.20;;;;;;;;;;5125183;28;20278;-39
2023/10/20 08:45:14;;;;;;;6.85;2.67;;;;;;;;;;5125547;28;20031;-40
2023/10/20 08:47:42;;;;;;;6.35;2.58;;;;;;;;;;5125083;28;20024;-46
2023/10/20 08:50:11;;;;;;;3.78;2.47;;;;;;;;;;5125278;28;20058;-40
2023/10/20 08:52:38;;;;;;;5.38;2.22;;;;;;;;;;5125179;28;20016;-43
2023/10/20 08:55:07;;;;;;;7.18;2.50;;;;;;;;;;5125270;28;20321;-42
2023/10/20 08:57:34;;;;;;;3.58;2.50;;;;;;;;;;5124500;28;20274;-40
2023/10/20 09:00:01;;;;;;;7.65;2.30;;;;;;;;;;5124909;28;20114;-41
2023/10/20 09:02:38;;;;;;;7.22;2.35;;;;;;;;;;5124876;28;20027;-44
2023/10/20 09:05:06;;;;;;;8.88;2.35;;;;;;;;;;5125175;28;20036;-38
2023/10/20 09:07:33;;;;;;;5.80;2.33;;;;;;;;;;5125218;28;20236;-37
2023/10/20 09:10:00;;;;;;;6.28;2.60;;;;;;;;;;5124803;28;20039;-40
2023/10/20 09:12:30;;;;;;;7.32;2.30;;;;;;;;;;5124785;28;20047;-42
2023/10/20 09:14:57;;;;;;;5.15;2.47;;;;;;;;;;5125233;28;20031;-42
2023/10/20 09:17:24;;;;;;;4.97;2.20;;;;;;;;;;5124580;28;20023;-48
2023/10/20 09:19:51;;;;;;;5.00;2.40;;;;;;;;;;5124967;28;20188;-46
2023/10/20 09:22:28;;;;;;;3.67;2.25;;;;;;;;;;5124776;28;20028;-41
2023/10/20 09:24:56;;;;;;;7.78;2.47;;;;;;;;;;5124863;28;20042;-48
2023/10/20 09:27:24;;;;;;;5.88;2.25;;;;;;;;;;5124504;28;20045;-47
2023/10/20 09:29:51;;;;;;;3.90;2.30;;;;;;;;;;5124654;28;20035;-45
2023/10/20 09:32:18;;;;;;;7.63;2.25;;;;;;;;;;5124480;28;20023;-46
2023/10/20 09:34:45;;;;;;;3.65;2.38;;;;;;;;;;5124562;28;20311;-45
2023/10/20 09:37:12;;;;;;;6.63;2.17;;;;;;;;;;5124363;28;20399;-41
2023/10/20 09:39:40;;;;;;;6.93;2.65;;;;;;;;;;5124651;28;20027;-37
2023/10/20 09:42:07;;;;;;;9.30;2.47;;;;;;;;;;5124350;28;20110;-42
2023/10/20 09:44:41;;;;;;;10.05;3.00;;;;;;;;;;5124454;28;20219;-46
2023/10/20 09:47:19;;;;;;;6.57;2.67;;;;;;;;;;5124603;28;20308;-42
2023/10/20 09:49:46;;;;;;;6.05;2.42;;;;;;;;;;5124323;28;20043;-41
2023/10/20 09:52:13;;;;;;;6.00;2.83;;;;;;;;;;5124188;28;20043;-38
2023/10/20 09:54:40;;;;;;;8.80;2.80;;;;;;;;;;5124453;28;20230;-43
2023/10/20 09:57:08;;;;;;;6.75;2.42;;;;;;;;;;5124654;28;20068;-39
2023/10/20 09:59:34;;;;;;;7.90;2.38;;;;;;;;;;5124013;28;20036;-36
2023/10/20 10:02:01;;;;;;;9.82;2.28;;;;;;;;;;5124041;28;20035;-40
2023/10/20 10:04:29;;;;;;;11.90;2.92;;;;;;;;;;5124333;28;20082;-46
2023/10/20 10:06:56;;;;;;;11.73;2.63;;;;;;;;;;5106240;28;20035;-40
2023/10/20 10:09:23;;;;;;;26.83;3.75;;;;;;;;;;5106527;28;20076;-40
2023/10/20 10:11:54;;;;;;;28.15;3.33;;;;;;;;;;5128110;28;20016;-39
2023/10/20 10:14:22;;;;;;;36.47;4.53;;;;;;;;;;5128921;28;20043;-42
2023/10/20 10:16:56;;;;;;;38.97;4.50;;;;;;;;;;5128137;28;20257;-47
2023/10/20 10:19:26;;;;;;;27.02;4.28;;;;;;;;;;5128211;28;20024;-37
2023/10/20 10:21:56;;;;;;;40.40;4.70;;;;;;;;;;5127983;28;20094;-40
2023/10/20 10:24:26;;;;;;;29.05;4.60;;;;;;;;;;5128119;28;20034;-38
2023/10/20 10:26:59;;;;;;;21.67;3.35;;;;;;;;;;5109763;28;20027;-40
2023/10/20 10:29:45;;;;;;;13.43;3.03;;;;;;;;;;5127887;28;20032;-42
2023/10/20 10:32:14;;;;;;;14.85;2.83;;;;;;;;;;5127798;28;20020;-38
2023/10/20 10:34:44;;;;;;;8.38;3.00;;;;;;;;;;5128241;28;20027;-37
2023/10/20 10:37:11;;;;;;;13.63;3.03;;;;;;;;;;5127714;28;20031;-42
2023/10/20 10:39:38;;;;;;;13.35;3.10;;;;;;;;;;5115566;28;20035;-46
2023/10/20 10:42:06;;;;;;;12.82;3.60;;;;;;;;;;5126312;28;20023;-40
2023/10/20 10:44:36;;;;;;;11.60;3.22;;;;;;;;;;5127969;28;20038;-43
2023/10/20 10:47:04;;;;;;;16.23;3.17;;;;;;;;;;5121778;28;20065;-42
2023/10/20 10:49:31;;;;;;;9.80;3.65;;;;;;;;;;5127212;28;20031;-39
2023/10/20 10:52:03;;;;;;;11.50;3.10;;;;;;;;;;5126905;28;20035;-39
2023/10/20 10:54:35;;;;;;;11.95;3.25;;;;;;;;;;5127354;28;20023;-38
2023/10/20 10:57:03;;;;;;;11.40;3.58;;;;;;;;;;5126438;28;20034;-43
2023/10/20 10:59:30;;;;;;;11.15;3.50;;;;;;;;;;5127119;28;20026;-41
2023/10/20 11:01:57;;;;;;;15.10;4.10;;;;;;;;;;5127182;28;20037;-41
2023/10/20 11:04:25;;;;;;;13.18;4.40;;;;;;;;;;5109392;28;20059;-38
2023/10/20 11:06:51;;;;;;;29.98;4.53;;;;;;;;;;5126726;27;20318;-40
2023/10/20 11:09:27;;;;;;;13.93;3.70;;;;;;;;;;5109090;28;20035;-40
2023/10/20 11:11:54;;;;;;;13.60;4.07;;;;;;;;;;5127121;28;20024;-38
2023/10/20 11:14:23;;;;;;;10.85;4.32;;;;;;;;;;5125975;28;20051;-39
2023/10/20 11:16:50;;;;;;;9.80;4.50;;;;;;;;;;5122850;28;20095;-37
2023/10/20 11:19:17;;;;;;;13.45;4.57;;;;;;;;;;5106952;28;20327;-38
2023/10/20 11:21:54;;;;;;;7.43;4.50;;;;;;;;;;5104652;28;20085;-40
2023/10/20 11:24:35;;;;;;;9.15;3.55;;;;;;;;;;5106715;28;20059;-39
2023/10/20 11:27:05;;;;;;;7.47;3.90;;;;;;;;;;5106421;28;20223;-37
2023/10/20 11:29:32;;;;;;;10.63;3.70;;;;;;;;;;5106583;28;20040;-38
2023/10/20 11:32:09;;;;;;;10.23;3.78;;;;;;;;;;5106178;28;20022;-43
2023/10/20 11:34:38;;;;;;;7.05;3.70;;;;;;;;;;5106757;28;20020;-42
2023/10/20 11:37:05;;;;;;;10.65;3.72;;;;;;;;;;5106361;28;20031;-40
2023/10/20 11:39:36;;;;;;;6.05;3.90;;;;;;;;;;5106018;28;20410;-41
2023/10/20 11:42:03;;;;;;;7.32;3.72;;;;;;;;;;5104497;28;20316;-42
2023/10/20 11:44:30;;;;;;;6.65;4.07;;;;;;;;;;5104669;28;20033;-42
2023/10/20 11:46:57;;;;;;;10.13;4.30;;;;;;;;;;5104809;28;20119;-44
2023/10/20 11:49:25;;;;;;;5.93;3.53;;;;;;;;;;5105364;28;20024;-51
2023/10/20 11:51:52;;;;;;;4.50;3.40;;;;;;;;;;5105278;28;20024;-46
2023/10/20 11:54:19;;;;;;;5.85;3.40;;;;;;;;;;5106378;28;20020;-48
2023/10/20 11:56:45;;;;;;;9.52;3.50;;;;;;;;;;5087932;28;20016;-45
2023/10/20 11:59:12;;;;;;;5.60;3.15;;;;;;;;;;5106006;28;20024;-47
2023/10/20 12:01:39;;;;;;;8.70;3.35;;;;;;;;;;5105553;28;20111;-47
2023/10/20 12:04:08;;;;;;;6.93;2.95;;;;;;;;;;5105878;28;20039;-48
2023/10/20 12:06:38;;;;;;;6.10;3.20;;;;;;;;;;5105628;28;20036;-47
2023/10/20 12:09:08;;;;;;;6.10;3.10;;;;;;;;;;5105688;28;20081;-44
2023/10/20 12:11:39;;;;;;;4.57;2.92;;;;;;;;;;5105605;28;20023;-44
2023/10/20 12:14:05;;;;;;;7.82;3.28;;;;;;;;;;5105598;28;20024;-42
2023/10/20 12:16:32;;;;;;;6.00;2.80;;;;;;;;;;5105418;28;20023;-46
2023/10/20 12:19:01;;;;;;;6.03;2.60;;;;;;;;;;5105652;28;20028;-53
2023/10/20 12:21:31;;;;;;;5.82;2.85;;;;;;;;;;5105615;28;20032;-44
2023/10/20 12:23:58;;;;;;;3.70;3.13;;;;;;;;;;5105454;28;20070;-46
2023/10/20 12:26:26;;;;;;;7.55;3.20;;;;;;;;;;5105581;28;20030;-49
2023/10/20 12:28:53;;;;;;;5.03;2.80;;;;;;;;;;5105241;28;20077;-45
2023/10/20 12:31:19;;;;;;;5.28;3.10;;;;;;;;;;5105473;28;20020;-49
2023/10/20 12:33:46;;;;;;;10.00;3.35;;;;;;;;;;5104541;28;20080;-49
2023/10/20 12:36:13;;;;;;;5.90;3.08;;;;;;;;;;5105039;28;20065;-46
2023/10/20 12:38:43;;;;;;;7.72;2.92;;;;;;;;;;5105142;28;20020;-48
2023/10/20 12:41:11;;;;;;;3.97;2.60;;;;;;;;;;5105042;28;20019;-49
2023/10/20 12:43:38;;;;;;;8.00;3.10;;;;;;;;;;5104791;28;20028;-49
2023/10/20 12:46:04;;;;;;;7.22;3.00;;;;;;;;;;5105032;28;20027;-56
2023/10/20 12:48:31;;;;;;;8.07;3.15;;;;;;;;;;5105042;28;20016;-49
2023/10/20 12:50:58;;;;;;;4.57;3.50;;;;;;;;;;5105458;28;20052;-49
2023/10/20 12:53:25;;;;;;;6.45;2.92;;;;;;;;;;5105113;28;20015;-49
2023/10/20 12:55:53;;;;;;;4.35;3.00;;;;;;;;;;5105627;28;20071;-49
2023/10/20 12:58:20;;;;;;;5.00;2.67;;;;;;;;;;5104802;28;20099;-48
2023/10/20 13:00:59;;;;;;;6.55;2.90;;;;;;;;;;5104815;28;20052;-48
2023/10/20 13:03:29;;;;;;;2.95;2.58;;;;;;;;;;5104795;28;20028;-37
2023/10/20 13:05:56;;;;;;;3.47;2.88;;;;;;;;;;5105074;28;20048;-37
2023/10/20 13:08:24;;;;;;;4.97;3.03;;;;;;;;;;5104730;28;20026;-38
2023/10/20 13:10:51;;;;;;;5.65;3.28;;;;;;;;;;5104912;28;20079;-38
2023/10/20 13:13:24;;;;;;;5.15;3.00;;;;;;;;;;5105001;28;20311;-40
2023/10/20 13:15:50;;;;;;;4.50;3.17;;;;;;;;;;5105042;28;20026;-42
2023/10/20 13:18:17;;;;;;;4.90;3.25;;;;;;;;;;5104487;28;20215;-38
2023/10/20 13:20:44;;;;;;;5.80;5.10;;;;;;;;;;5104960;28;20020;-42
2023/10/20 13:23:12;;;;;;;6.22;3.60;;;;;;;;;;5104920;28;20015;-38
2023/10/20 13:25:39;;;;;;;6.20;3.45;;;;;;;;;;5106086;28;20354;-38
2023/10/20 13:28:05;;;;;;;6.15;3.20;;;;;;;;;;5104387;28;20019;-39
2023/10/20 13:30:32;;;;;;;3.80;3.40;;;;;;;;;;5104679;28;20225;-35
2023/10/20 13:33:03;;;;;;;4.55;3.40;;;;;;;;;;5104390;28;20024;-39
2023/10/20 13:35:31;;;;;;;4.38;3.22;;;;;;;;;;5104741;28;20151;-38
2023/10/20 13:37:58;;;;;;;6.88;3.28;;;;;;;;;;5104156;28;20216;-40
2023/10/20 13:40:24;;;;;;;5.20;3.05;;;;;;;;;;5104305;28;20032;-37
2023/10/20 13:42:51;;;;;;;8.07;3.00;;;;;;;;;;5104338;28;20023;-37
2023/10/20 13:45:18;;;;;;;8.75;3.58;;;;;;;;;;5104361;28;20019;-36
2023/10/20 13:47:44;;;;;;;5.00;3.30;;;;;;;;;;5103843;28;20223;-41
2023/10/20 13:50:12;;;;;;;5.93;3.33;;;;;;;;;;5104169;28;20315;-42
2023/10/20 13:52:39;;;;;;;4.47;3.28;;;;;;;;;;5103892;28;20054;-40
2023/10/20 13:55:06;;;;;;;5.38;3.40;;;;;;;;;;5104339;28;20073;-43
2023/10/20 13:57:33;;;;;;;4.97;3.25;;;;;;;;;;5104021;28;20016;-45
2023/10/20 14:00:00;;;;;;;4.85;3.00;;;;;;;;;;5082652;28;20044;-44
2023/10/20 14:02:26;;;;;;;6.78;3.78;;;;;;;;;;5083776;28;20343;-42
2023/10/20 14:04:53;;;;;;;5.85;3.08;;;;;;;;;;5083885;28;20023;-41
2023/10/20 14:07:19;;;;;;;7.40;3.03;;;;;;;;;;5083727;28;20025;-45
2023/10/20 14:09:46;;;;;;;6.85;3.28;;;;;;;;;;5083652;28;20032;-44
2023/10/20 14:12:13;;;;;;;7.53;3.50;;;;;;;;;;5083605;28;20043;-46
2023/10/20 14:14:42;;;;;;;10.15;3.95;;;;;;;;;;5083901;28;20189;-44
2023/10/20 14:17:09;;;;;;;11.52;4.05;;;;;;;;;;5083327;28;20025;-44
2023/10/20 14:19:36;;;;;;;8.63;3.72;;;;;;;;;;5083658;28;20025;-46
2023/10/20 14:22:04;;;;;;;8.10;3.47;;;;;;;;;;5083585;28;20025;-49
2023/10/20 14:24:31;;;;;;;6.35;3.40;;;;;;;;;;5083603;28;20035;-51
2023/10/20 14:27:01;;;;;;;8.32;3.53;;;;;;;;;;5083374;28;20091;-48
2023/10/20 14:29:28;;;;;;;7.68;3.67;;;;;;;;;;5083804;28;20032;-51
2023/10/20 14:31:55;;;;;;;7.20;3.30;;;;;;;;;;5083212;28;20035;-51
2023/10/20 14:34:21;;;;;;;9.38;3.58;;;;;;;;;;5083679;28;20024;-44
2023/10/20 14:36:49;;;;;;;3.83;3.22;;;;;;;;;;5097131;28;20031;-48
2023/10/20 14:39:17;;;;;;;7.13;3.25;;;;;;;;;;5088869;28;20040;-43
2023/10/20 14:41:44;;;;;;;8.27;3.28;;;;;;;;;;5099189;28;20024;-43
2023/10/20 14:44:13;;;;;;;7.32;3.47;;;;;;;;;;5103631;28;20068;-36
2023/10/20 14:46:40;;;;;;;5.00;3.28;;;;;;;;;;5101747;28;20051;-38
2023/10/20 14:49:06;;;;;;;4.50;3.70;;;;;;;;;;5103625;28;20052;-48
2023/10/20 14:51:33;;;;;;;4.53;3.30;;;;;;;;;;5103996;28;20012;-46
2023/10/20 14:53:59;;;;;;;6.13;3.45;;;;;;;;;;5102827;28;20035;-43
2023/10/20 14:56:26;;;;;;;5.80;3.40;;;;;;;;;;5102996;28;20027;-42
2023/10/20 14:58:56;;;;;;;5.68;3.60;;;;;;;;;;5105648;28;20022;-44
2023/10/20 15:01:23;;;;;;;10.70;3.50;;;;;;;;;;5123775;28;20051;-43
2023/10/20 15:03:50;;;;;;;18.17;4.30;;;;;;;;;;5109607;28;20016;-46
2023/10/20 15:06:18;;;;;;;9.82;4.20;;;;;;;;;;5127494;28;20078;-40
2023/10/20 15:08:46;;;;;;;15.77;4.50;;;;;;;;;;5109366;28;20023;-40
2023/10/20 15:11:12;;;;;;;12.35;3.72;;;;;;;;;;5127318;28;20023;-42
2023/10/20 15:13:39;;;;;;;10.55;3.65;;;;;;;;;;5127270;28;20031;-42
2023/10/20 15:16:06;;;;;;;11.93;3.72;;;;;;;;;;5127085;28;20031;-52
2023/10/20 15:18:33;;;;;;;10.20;3.90;;;;;;;;;;5127166;28;20032;-42
2023/10/20 15:20:59;;;;;;;5.72;3.42;;;;;;;;;;5127177;28;20051;-52
2023/10/20 15:23:26;;;;;;;6.78;3.40;;;;;;;;;;5127006;28;20032;-46
2023/10/20 15:25:53;;;;;;;8.73;3.90;;;;;;;;;;5127479;28;20072;-45
2023/10/20 15:28:20;;;;;;;7.30;3.65;;;;;;;;;;5127214;28;20031;-45
2023/10/20 15:30:47;;;;;;;10.82;3.65;;;;;;;;;;5127168;28;20028;-44
2023/10/20 15:33:14;;;;;;;7.22;3.55;;;;;;;;;;5127291;28;20019;-48
2023/10/20 15:35:41;;;;;;;4.93;3.63;;;;;;;;;;5127265;28;20023;-41
2023/10/20 15:38:11;;;;;;;4.53;3.00;;;;;;;;;;5126727;28;20031;-41
2023/10/20 15:40:38;;;;;;;5.30;3.15;;;;;;;;;;5127039;28;20035;-50
2023/10/20 15:43:04;;;;;;;4.93;3.80;;;;;;;;;;5126521;28;20015;-47